NCAR-RAP Real-Time Weather Data

Output produced by METARs form (17 October 2017  13:28 UTC)
found at http://weather.rap.ucar.edu/surface/
 
Conditions at: K4O4 observed 17 October 2017  13:15 UTC
Temperature: 5.0°C (41°F)
Dewpoint: 4.0°C (39°F) [RH = 93%]
Pressure (altimeter): 30.34 inches Hg (1027.5 mb)
Winds: calm
Visibility: 10 or more miles (16+ km)
Ceiling: at least 12,000 feet AGL
Clouds: sky clear below 12,000 feet AGL
Present Weather: automated observation with no human augmentation;
there may or may not be significant weather present at this time
K4O4 171315Z AUTO 00000KT 10SM CLR 05/04 A3034 RMK AO2